Flight Track Log - Related Links

Times and Time Zones

All times are in EDT time to prevent confusion due to time zone crossing. See the FLG4135 flight status page for this flight to view local times or setup timezone preferences in your user account.

Time Position Orientation Groundspeed Altitude Reporting Facility
EDT Latitude Longitude Course Direction KTS MPH feet Rate Location/Type
Sun 06:25:14 AM 46.3481 -87.3961 142° Southeast 12 14 1,200  Level Minneapolis Center
Sun 06:26:14 AM 46.3647 -87.3925 North 89 102 1,400 1,200 Climbing Minneapolis Center
Sun 06:27:14 AM 46.3758 -87.3447 71° East 191 220 3,600 2,100 Climbing Minneapolis Center
Sun 06:28:14 AM 46.3164 -87.3064 156° South 252 290 5,600 2,529 Climbing Minneapolis Center
Sun 06:29:15 AM 46.2428 -87.2575 155° Southeast 282 325 8,700 2,678 Climbing Minneapolis Center
Sun 06:30:15 AM 46.1714 -87.1850 145° Southeast 306 352 11,000 1,700 Climbing Minneapolis Center
Sun 06:31:00 AM 45.8653 -86.8801 142° Southeast  Level Estimated
Sun 06:31:15 AM 46.0908 -87.0950 142° Southeast 360 414 12,100  Level Minneapolis Center
Sun 06:32:15 AM 46.0019 -86.9956 142° Southeast 398 458 13,100 942 Climbing Minneapolis Center
Sun 06:33:16 AM 45.9133 -86.8992 143° Southeast 424 488 14,000 992 Climbing Minneapolis Center
Sun 06:34:16 AM 45.8161 -86.7889 142° Southeast 438 504 15,100 1,000 Climbing Minneapolis Center
Sun 06:35:16 AM 45.7164 -86.6800 143° Southeast 441 507 16,000 942 Climbing Minneapolis Center
Sun 06:36:17 AM 45.6169 -86.5706 142° Southeast 447 514 17,000 843 Climbing Minneapolis Center
Sun 06:37:17 AM 45.5175 -86.4600 142° Southeast 453 521 17,700 900 Climbing Minneapolis Center
Sun 06:38:17 AM 45.4153 -86.3506 143° Southeast 458 527 18,800 1,050 Climbing Minneapolis Center
Sun 06:39:17 AM 45.3131 -86.2414 143° Southeast 458 527 19,800 992 Climbing Minneapolis Center
Sun 06:40:18 AM 45.2114 -86.1303 142° Southeast 460 529 20,800 992 Climbing Minneapolis Center
Sun 06:41:18 AM 45.1025 -86.0125 143° Southeast 471 542 21,800 900 Climbing Minneapolis Center
Sun 06:42:18 AM 44.9983 -85.9011 143° Southeast 472 543 22,600 793 Climbing Minneapolis Center
Sun 06:43:19 AM 44.8928 -85.7878 143° Southeast 475 547 23,400 793 Climbing Minneapolis Center
Sun 06:44:19 AM 44.7861 -85.6761 143° Southeast 477 549 24,200 800 Climbing Minneapolis Center
Sun 06:45:19 AM 44.6786 -85.5614 143° Southeast 474 545 25,000 800 Climbing Minneapolis Center
Sun 06:46:19 AM 44.5803 -85.4328 137° Southeast 481 554 25,800 793 Climbing Minneapolis Center
Sun 06:47:20 AM 44.4825 -85.3044 137° Southeast 482 555 26,600 595 Climbing Minneapolis Center
Sun 06:48:20 AM 44.3839 -85.1756 137° Southeast 483 556 27,000 200 Climbing Minneapolis Center
Sun 06:49:20 AM 44.2822 -85.0439 137° Southeast 495 570 27,000  Level Minneapolis Center
Sun 06:50:21 AM 44.1850 -84.9156 137° Southeast 488 562 27,000  Level Minneapolis Center
Sun 06:51:21 AM 44.0933 -84.7961 137° Southeast 465 535 27,000 -400 Level Minneapolis Center
Sun 06:52:21 AM 44.0019 -84.6789 137° Southeast 451 519 26,200 -1,350 Descending Minneapolis Center
Sun 06:53:21 AM 43.9114 -84.5622 137° Southeast 448 516 24,300 -1,587 Descending Minneapolis Center
Sun 06:54:22 AM 43.8239 -84.4503 137° Southeast 441 507 23,000 -645 Descending Minneapolis Center
Sun 06:55:22 AM 43.7356 -84.3378 137° Southeast 437 503 23,000  Level Minneapolis Center
Sun 06:56:22 AM 43.6475 -84.2253 137° Southeast 434 499 23,000  Level Minneapolis Center
Sun 06:57:22 AM 43.5558 -84.1086 137° Southeast 437 503 23,000  Level Minneapolis Center
Sun 06:58:23 AM 43.4394 -84.0353 155° Southeast 457 526 23,000 -347 Level Minneapolis Center
Sun 06:59:23 AM 43.3236 -83.9806 161° South 453 521 22,300 -1,650 Descending Minneapolis Center
Sun 07:00:23 AM 43.2072 -83.9278 162° South 447 514 19,700 -2,430 Descending Minneapolis Center
Sun 07:01:24 AM 43.0964 -83.8761 161° South 439 505 17,400 -2,436 Descending Minneapolis Center
Sun 07:02:04 AM 43.0247 -83.8464 163° South 395 455 15,600 -2,240 Descending Cleveland Center
Sun 07:02:39 AM 42.9733 -83.8239 162° South 410 472 14,600 -2,152 Descending Cleveland Center
Sun 07:03:36 AM 42.8728 -83.7592 155° Southeast 375 432 12,300 -1,333 Descending Cleveland Center
Sun 07:04:36 AM 42.7786 -83.7033 156° South 370 426 12,000 -149 Descending Cleveland Center
Sun 07:05:37 AM 42.6842 -83.6450 156° South 372 428 12,000  Level Cleveland Center
Sun 07:06:39 AM 42.5958 -83.5956 158° South 371 427 12,000  Level Cleveland Center
Sun 07:07:39 AM 42.5014 -83.5403 157° South 371 427 12,000  Level Cleveland Center
Sun 07:08:52 AM 42.3864 -83.4703 156° South 319 367 12,000 -300 Level Cleveland Center
Sun 07:09:39 AM 42.3156 -83.4642 176° South 333 383 11,400 -1,234 Descending Cleveland Center
Sun 07:10:39 AM 42.2339 -83.4886 192° South 306 352 9,800 -1,850 Descending Cleveland Center
Sun 07:11:39 AM 42.1636 -83.5469 212° Southwest 306 352 7,700 -1,606 Descending Cleveland Center
Sun 07:13:01 AM 42.0906 -83.5492 181° South 220 253 6,000 -1,445 Descending Cleveland Center
Sun 07:13:56 AM 42.0919 -83.4878 88° East 200 230 4,400 -1,810 Descending Cleveland Center
Sun 07:14:57 AM 42.1244 -83.4417 46° Northeast 156 180 2,500 -1,328 Descending Cleveland Center
Sun 07:15:58 AM 42.1564 -83.4178 29° Northeast 124 143 1,700 -689 Descending Cleveland Center
Sun 07:16:59 AM 42.1881 -83.3969 26° Northeast 123 142 1,100 -590 Descending Cleveland Center

Login

Don't have an account? Register now (free) for customized features, flight alerts, and more!